Terminal Aerodrome Forecast
Issued by NWS Atlanta, GA

Home | Current Version | Previous Version | Text Only | Print | Product List | Glossary On
Versions: 1 2 3 4 5 6 7 8 9 10 11 12 13 14 15 16
974
FTUS42 KFFC 240540
TAFCSG
TAF
KCSG 240540Z 2406/2506 16006KT P6SM BKN080
     FM240900 17004KT P6SM BKN050
     FM241200 19003KT P6SM BKN030
     FM241500 19010KT P6SM BKN040
     FM241900 21010G15KT P6SM BKN050
     FM250200 19008KT P6SM SCT050 BKN250=

USA.gov is the U.S. government's official web portal to all federal, state and local government web resources and services.